createdAt,value
2022-09-13T00:02:03.292Z,12.39
2022-09-13T00:04:31.059Z,12.11
2022-09-13T00:06:58.475Z,11.85
2022-09-13T00:09:25.919Z,11.76
2022-09-13T00:11:53.632Z,11.60
2022-09-13T00:14:21.037Z,11.65
2022-09-13T00:16:48.486Z,12.02
2022-09-13T00:19:16.243Z,11.85
2022-09-13T00:21:43.617Z,11.71
2022-09-13T00:24:11.015Z,11.57
2022-09-13T00:26:38.640Z,11.49
2022-09-13T00:29:06.015Z,11.60
2022-09-13T00:31:33.566Z,11.21
2022-09-13T00:34:01.329Z,11.40
2022-09-13T00:36:47.535Z,11.39
2022-09-13T00:39:15.160Z,11.30
2022-09-13T00:41:42.609Z,11.23
2022-09-13T00:44:47.280Z,11.31
2022-09-13T00:47:19.462Z,11.15
2022-09-13T00:49:48.522Z,11.24
2022-09-13T00:52:20.139Z,11.13
2022-09-13T00:54:55.106Z,10.95
2022-09-13T00:57:24.737Z,10.86
2022-09-13T01:00:14.067Z,10.79
2022-09-13T01:02:45.857Z,10.72
2022-09-13T01:05:15.599Z,10.66
2022-09-13T01:07:44.051Z,10.76
2022-09-13T01:10:11.507Z,10.84
2022-09-13T01:13:15.109Z,10.62
2022-09-13T01:15:42.778Z,10.65
2022-09-13T01:18:11.152Z,10.63
2022-09-13T01:21:15.821Z,10.49
2022-09-13T01:24:10.142Z,10.43
2022-09-13T01:27:04.267Z,10.45
2022-09-13T01:29:59.926Z,10.53
2022-09-13T01:32:30.502Z,10.54
2022-09-13T01:35:21.377Z,10.53
2022-09-13T01:38:01.162Z,10.63
2022-09-13T01:41:07.906Z,10.40
2022-09-13T01:43:58.250Z,10.47
2022-09-13T01:46:52.442Z,10.18
2022-09-13T01:49:45.190Z,10.39
2022-09-13T01:52:35.010Z,10.43
2022-09-13T01:55:37.078Z,10.51
2022-09-13T01:58:38.399Z,10.72
2022-09-13T02:01:32.251Z,10.63
2022-09-13T02:04:14.836Z,10.31
2022-09-13T02:07:09.083Z,10.30
2022-09-13T02:09:40.488Z,10.19
2022-09-13T02:12:14.280Z,10.30
2022-09-13T02:14:44.750Z,10.23
2022-09-13T02:17:22.634Z,10.16
2022-09-13T02:19:56.498Z,10.21
2022-09-13T02:22:32.237Z,10.29
2022-09-13T02:25:10.590Z,10.31
2022-09-13T02:27:39.366Z,10.60
2022-09-13T02:30:09.001Z,10.35
2022-09-13T02:32:40.679Z,10.35
2022-09-13T02:35:22.923Z,10.33
2022-09-13T02:37:58.510Z,10.25
2022-09-13T02:40:35.240Z,10.15
2022-09-13T02:43:08.912Z,10.26
2022-09-13T02:45:44.845Z,10.37
2022-09-13T02:48:23.810Z,10.35
2022-09-13T02:51:08.386Z,10.34
2022-09-13T02:53:50.398Z,10.01
2022-09-13T02:56:25.625Z,10.23
2022-09-13T02:59:20.145Z,9.98
2022-09-13T03:01:52.539Z,10.22
2022-09-13T03:04:19.984Z,10.40
2022-09-13T03:06:49.603Z,10.12
2022-09-13T03:09:17.320Z,10.03
2022-09-13T03:12:22.666Z,10.18
2022-09-13T03:15:13.843Z,10.27
2022-09-13T03:17:45.861Z,10.21
2022-09-13T03:20:23.251Z,10.07
2022-09-13T03:23:15.431Z,10.18
2022-09-13T03:25:59.286Z,10.14
2022-09-13T03:28:32.499Z,9.86
2022-09-13T03:31:08.051Z,10.18
2022-09-13T03:33:46.638Z,10.08
2022-09-13T03:36:21.795Z,9.86
2022-09-13T03:39:05.834Z,10.04
2022-09-13T03:41:37.394Z,9.92
2022-09-13T03:44:08.104Z,9.84
2022-09-13T03:46:39.151Z,10.01
2022-09-13T03:49:13.188Z,10.01
2022-09-13T03:51:42.096Z,10.19
2022-09-13T03:54:18.615Z,10.40
2022-09-13T03:57:11.367Z,10.30
2022-09-13T03:59:42.183Z,10.46
2022-09-13T04:02:11.793Z,11.21
2022-09-13T04:04:40.817Z,10.93
2022-09-13T04:07:09.794Z,10.30
2022-09-13T04:09:37.155Z,10.23
2022-09-13T04:12:05.104Z,10.19
2022-09-13T04:14:33.603Z,9.94
2022-09-13T04:17:01.129Z,9.65
2022-09-13T04:19:28.760Z,9.74
2022-09-13T04:21:56.308Z,9.76
2022-09-13T04:24:28.206Z,9.64
2022-09-13T04:26:56.423Z,9.74
2022-09-13T04:29:25.679Z,9.57
2022-09-13T04:31:54.419Z,9.69
2022-09-13T04:34:23.573Z,9.37
2022-09-13T04:36:52.527Z,9.24
2022-09-13T04:39:20.933Z,9.54
2022-09-13T04:41:49.128Z,9.93
2022-09-13T04:44:17.570Z,9.95
2022-09-13T04:46:48.272Z,10.65
2022-09-13T04:49:17.488Z,10.45
2022-09-13T04:51:44.927Z,10.59
2022-09-13T04:54:15.504Z,10.22
2022-09-13T04:56:47.171Z,9.96
2022-09-13T04:59:14.650Z,9.95
2022-09-13T05:01:42.437Z,10.02
2022-09-13T05:04:10.483Z,9.69
2022-09-13T05:06:38.272Z,9.88
2022-09-13T05:09:05.807Z,10.03
2022-09-13T05:11:33.583Z,10.22
2022-09-13T05:14:01.257Z,10.24
2022-09-13T05:16:31.040Z,10.20
2022-09-13T05:18:59.128Z,10.61
2022-09-13T05:21:27.889Z,10.30
2022-09-13T05:23:56.591Z,10.28
2022-09-13T05:26:27.153Z,10.30
2022-09-13T05:28:54.668Z,10.26
2022-09-13T05:31:30.827Z,10.48
2022-09-13T05:34:01.591Z,10.34
2022-09-13T05:36:29.293Z,10.51
2022-09-13T05:39:12.561Z,10.74
2022-09-13T05:41:46.170Z,10.80
2022-09-13T05:44:14.377Z,11.22
2022-09-13T05:46:42.884Z,11.12
2022-09-13T05:49:12.736Z,11.19
2022-09-13T05:51:40.374Z,11.48
2022-09-13T05:54:08.462Z,11.60
2022-09-13T05:56:36.333Z,11.57
2022-09-13T05:59:03.689Z,12.09
2022-09-13T06:01:31.610Z,11.93
2022-09-13T06:03:59.712Z,11.64
2022-09-13T06:06:27.597Z,11.73
2022-09-13T06:08:56.323Z,12.08
2022-09-13T06:11:25.686Z,12.30
2022-09-13T06:13:53.528Z,12.20
2022-09-13T06:16:21.527Z,12.32
2022-09-13T06:18:50.114Z,12.69
2022-09-13T06:21:20.451Z,13.21
2022-09-13T06:23:52.806Z,13.35
2022-09-13T06:26:26.146Z,13.68
2022-09-13T06:28:55.329Z,13.84
2022-09-13T06:31:24.902Z,13.92
2022-09-13T06:34:00.977Z,14.28
2022-09-13T06:36:28.950Z,14.28
2022-09-13T06:38:57.183Z,15.01
2022-09-13T06:41:24.971Z,14.86
2022-09-13T06:43:57.869Z,14.94
2022-09-13T06:46:27.140Z,15.58
2022-09-13T06:48:54.916Z,15.56
2022-09-13T06:51:24.044Z,15.83
2022-09-13T06:53:55.846Z,15.80
2022-09-13T06:56:34.800Z,15.90
2022-09-13T06:59:05.030Z,15.93
2022-09-13T07:01:36.311Z,16.23
2022-09-13T07:04:09.394Z,16.61
2022-09-13T07:06:42.026Z,16.45
2022-09-13T07:09:12.896Z,16.62
2022-09-13T07:11:42.090Z,16.85
2022-09-13T07:14:13.540Z,17.16
2022-09-13T07:16:41.228Z,17.30
2022-09-13T07:19:20.144Z,16.72
2022-09-13T07:21:49.881Z,17.21
2022-09-13T07:24:18.301Z,17.52
2022-09-13T07:26:46.795Z,17.40
2022-09-13T07:29:17.012Z,17.77
2022-09-13T07:31:46.126Z,17.58
2022-09-13T07:34:16.063Z,18.08
2022-09-13T07:36:44.905Z,18.21
2022-09-13T07:39:16.359Z,18.00
2022-09-13T07:41:46.970Z,17.55
2022-09-13T07:44:14.501Z,18.57
2022-09-13T07:46:43.573Z,18.49
2022-09-13T07:49:18.171Z,18.45
2022-09-13T07:51:45.573Z,18.84
2022-09-13T07:54:15.473Z,18.66
2022-09-13T07:56:42.993Z,19.00
2022-09-13T07:59:15.266Z,19.69
2022-09-13T08:01:45.692Z,19.11
2022-09-13T08:04:17.711Z,18.96
2022-09-13T08:06:46.896Z,19.32
2022-09-13T08:09:15.528Z,18.96
2022-09-13T08:11:47.925Z,19.15
2022-09-13T08:14:17.233Z,19.42
2022-09-13T08:16:45.008Z,19.42
2022-09-13T08:19:14.963Z,19.72
2022-09-13T08:21:43.605Z,19.75
2022-09-13T08:24:19.144Z,20.44
2022-09-13T08:26:47.762Z,20.38
2022-09-13T08:29:15.949Z,20.50
2022-09-13T08:31:43.598Z,20.78
2022-09-13T08:34:14.667Z,20.15
2022-09-13T08:36:42.538Z,20.47
2022-09-13T08:39:12.899Z,21.20
2022-09-13T08:41:42.056Z,21.01
2022-09-13T08:44:13.981Z,21.46
2022-09-13T08:46:45.528Z,20.94
2022-09-13T08:49:38.061Z,21.37
2022-09-13T08:52:18.815Z,21.42
2022-09-13T08:54:46.425Z,21.41
2022-09-13T08:57:25.541Z,21.73
2022-09-13T09:00:04.611Z,21.95
2022-09-13T09:03:12.938Z,21.82
2022-09-13T09:05:49.091Z,21.48
2022-09-13T09:08:25.815Z,21.95
2022-09-13T09:10:54.999Z,21.91
2022-09-13T09:13:33.086Z,22.61
2022-09-13T09:16:05.350Z,21.67
2022-09-13T09:18:36.641Z,22.04
2022-09-13T09:21:04.888Z,22.17
2022-09-13T09:23:39.081Z,22.51
2022-09-13T09:26:18.983Z,22.72
2022-09-13T09:29:11.357Z,22.30
2022-09-13T09:31:59.696Z,21.95
2022-09-13T09:35:05.573Z,22.29
2022-09-13T09:37:35.176Z,22.97
2022-09-13T09:40:08.116Z,22.67
2022-09-13T09:42:45.097Z,22.28
2022-09-13T09:45:26.757Z,22.27
2022-09-13T09:47:55.774Z,22.40
2022-09-13T09:50:28.151Z,22.65
2022-09-13T09:52:59.805Z,23.09
2022-09-13T09:55:37.930Z,23.20
2022-09-13T09:58:11.415Z,23.63
2022-09-13T10:00:52.647Z,23.21
2022-09-13T10:03:24.505Z,23.02
2022-09-13T10:05:52.026Z,23.26
2022-09-13T10:08:28.581Z,23.59
2022-09-13T10:10:57.800Z,24.19
2022-09-13T10:13:31.043Z,24.53
2022-09-13T10:16:07.686Z,24.18
2022-09-13T10:18:44.573Z,24.12
2022-09-13T10:21:26.220Z,23.42
2022-09-13T10:24:17.562Z,23.85
2022-09-13T10:26:45.759Z,24.57
2022-09-13T10:29:15.681Z,23.81
2022-09-13T10:31:45.584Z,24.05
2022-09-13T10:34:45.372Z,23.99
2022-09-13T10:37:17.765Z,23.83
2022-09-13T10:40:13.452Z,24.18
2022-09-13T10:42:41.064Z,24.28
2022-09-13T10:45:09.673Z,25.21
2022-09-13T10:48:05.096Z,25.48
2022-09-13T10:50:33.676Z,24.82
2022-09-13T10:53:02.048Z,24.08
2022-09-13T10:55:31.291Z,23.63
2022-09-13T10:58:01.956Z,23.82
2022-09-13T11:01:06.518Z,23.72
2022-09-13T11:03:52.963Z,23.07
2022-09-13T11:06:25.790Z,23.71
2022-09-13T11:09:16.246Z,23.61
2022-09-13T11:11:57.315Z,23.89
2022-09-13T11:14:34.275Z,24.05
2022-09-13T11:17:33.802Z,24.18
2022-09-13T11:20:05.582Z,24.28
2022-09-13T11:22:32.942Z,24.35
2022-09-13T11:25:10.101Z,24.41
2022-09-13T11:28:06.742Z,23.82
2022-09-13T11:31:02.357Z,24.61
2022-09-13T11:33:41.492Z,25.52
2022-09-13T11:36:43.121Z,25.81
2022-09-13T11:39:26.456Z,25.93
2022-09-13T11:42:36.241Z,25.35
2022-09-13T11:45:20.714Z,23.43
2022-09-13T11:48:04.943Z,23.42
2022-09-13T11:50:39.848Z,22.88
2022-09-13T11:53:25.916Z,23.67
2022-09-13T11:56:05.290Z,24.11
2022-09-13T11:58:38.329Z,24.02
2022-09-13T12:01:11.975Z,24.90
2022-09-13T12:03:49.214Z,24.84
2022-09-13T12:06:24.822Z,23.66
2022-09-13T12:09:02.045Z,23.72
2022-09-13T12:11:35.292Z,25.11
2022-09-13T12:14:05.887Z,25.88
2022-09-13T12:16:55.094Z,24.96
2022-09-13T12:19:27.505Z,25.08
2022-09-13T12:22:00.118Z,26.19
2022-09-13T12:24:47.686Z,26.00
2022-09-13T12:27:37.714Z,25.26
2022-09-13T12:30:15.992Z,25.58
2022-09-13T12:32:47.960Z,25.83
2022-09-13T12:35:59.977Z,26.52
2022-09-13T12:38:40.707Z,27.01
2022-09-13T12:41:42.890Z,25.75
2022-09-13T12:44:16.210Z,24.80
2022-09-13T12:47:01.944Z,24.34
2022-09-13T12:50:15.096Z,25.69
2022-09-13T12:52:57.687Z,24.26
2022-09-13T12:55:46.012Z,23.95
2022-09-13T12:58:14.826Z,23.92
2022-09-13T13:00:59.983Z,23.24
2022-09-13T13:03:31.678Z,24.65
2022-09-13T13:06:24.395Z,24.72
2022-09-13T13:08:53.986Z,25.11
2022-09-13T13:11:27.086Z,23.94
2022-09-13T13:14:09.300Z,25.11
2022-09-13T13:16:40.738Z,24.22
2022-09-13T13:19:29.160Z,24.49
2022-09-13T13:21:56.671Z,24.66
2022-09-13T13:24:24.275Z,24.33
2022-09-13T13:26:56.671Z,24.58
2022-09-13T13:29:27.407Z,23.77
2022-09-13T13:31:57.667Z,24.14
2022-09-13T13:34:32.069Z,24.32
2022-09-13T13:37:10.472Z,24.82
2022-09-13T13:39:44.700Z,24.85
2022-09-13T13:42:38.290Z,24.78
2022-09-13T13:45:25.723Z,25.51
2022-09-13T13:48:11.357Z,24.68
2022-09-13T13:51:17.120Z,24.30
2022-09-13T13:53:57.596Z,24.57
2022-09-13T13:56:35.582Z,24.14
2022-09-13T13:59:16.226Z,23.85
2022-09-13T14:01:47.399Z,23.69
2022-09-13T14:04:34.390Z,24.81
2022-09-13T14:07:19.528Z,25.16
2022-09-13T14:09:53.058Z,24.53
2022-09-13T14:12:53.511Z,24.82
2022-09-13T14:15:54.324Z,23.89
2022-09-13T14:18:30.703Z,24.29
2022-09-13T14:21:09.581Z,24.18
2022-09-13T14:23:37.238Z,24.38
2022-09-13T14:26:06.087Z,24.24
2022-09-13T14:28:33.543Z,24.65
2022-09-13T14:31:00.924Z,24.88
2022-09-13T14:33:37.414Z,24.58
2022-09-13T14:36:16.579Z,24.99
2022-09-13T14:38:55.372Z,24.07
2022-09-13T14:41:31.292Z,24.07
2022-09-13T14:44:22.544Z,24.32
2022-09-13T14:47:02.008Z,24.74
2022-09-13T14:49:34.605Z,25.15
2022-09-13T14:52:20.806Z,24.51
2022-09-13T14:54:52.710Z,24.70
2022-09-13T14:57:33.936Z,23.87
2022-09-13T15:00:09.648Z,24.25
2022-09-13T15:02:39.223Z,24.22
2022-09-13T15:05:14.277Z,24.12
2022-09-13T15:07:42.329Z,23.61
2022-09-13T15:10:13.091Z,23.36
2022-09-13T15:12:55.546Z,23.46
2022-09-13T15:15:26.286Z,23.21
2022-09-13T15:17:59.883Z,23.87
2022-09-13T15:20:31.362Z,23.63
2022-09-13T15:22:58.895Z,22.99
2022-09-13T15:25:28.060Z,23.55
2022-09-13T15:27:56.990Z,23.15
2022-09-13T15:30:30.441Z,23.08
2022-09-13T15:33:36.923Z,23.70
2022-09-13T15:36:19.671Z,22.94
2022-09-13T15:39:09.335Z,23.36
2022-09-13T15:41:41.197Z,23.26
2022-09-13T15:44:09.766Z,23.12
2022-09-13T15:47:04.958Z,23.51
2022-09-13T15:49:32.891Z,23.14
2022-09-13T15:52:02.087Z,23.35
2022-09-13T15:54:36.693Z,23.30
2022-09-13T15:57:09.901Z,23.74
2022-09-13T15:59:37.252Z,23.82
2022-09-13T16:02:17.977Z,23.48
2022-09-13T16:04:45.707Z,23.35
2022-09-13T16:07:14.330Z,23.52
2022-09-13T16:09:42.175Z,23.59
2022-09-13T16:12:10.463Z,24.04
2022-09-13T16:14:38.025Z,24.04
2022-09-13T16:17:10.926Z,24.18
2022-09-13T16:19:38.560Z,23.93
2022-09-13T16:22:09.681Z,24.00
2022-09-13T16:24:39.872Z,24.34
2022-09-13T16:27:07.523Z,23.92
2022-09-13T16:29:34.952Z,23.81
2022-09-13T16:32:02.806Z,23.72
2022-09-13T16:34:30.231Z,23.82
2022-09-13T16:36:57.942Z,24.06
2022-09-13T16:39:25.726Z,24.13
2022-09-13T16:41:53.261Z,24.14
2022-09-13T16:44:20.840Z,24.11
2022-09-13T16:46:48.632Z,23.89
2022-09-13T16:49:16.184Z,24.11
2022-09-13T16:51:43.592Z,23.70
2022-09-13T16:54:12.242Z,23.68
2022-09-13T16:56:39.647Z,23.78
2022-09-13T16:59:07.057Z,23.66
2022-09-13T17:01:34.835Z,23.78
2022-09-13T17:04:02.596Z,23.78
2022-09-13T17:06:30.118Z,23.54
2022-09-13T17:09:03.200Z,23.57
2022-09-13T17:11:34.465Z,23.62
2022-09-13T17:14:05.319Z,23.47
2022-09-13T17:16:35.696Z,23.34
2022-09-13T17:19:06.155Z,23.89
2022-09-13T17:21:34.117Z,23.74
2022-09-13T17:24:02.232Z,23.47
2022-09-13T17:26:30.123Z,23.76
2022-09-13T17:28:57.657Z,23.27
2022-09-13T17:31:25.172Z,23.17
2022-09-13T17:33:53.385Z,23.43
2022-09-13T17:36:21.246Z,23.28
2022-09-13T17:38:49.209Z,22.97
2022-09-13T17:41:22.511Z,22.87
2022-09-13T17:43:53.593Z,22.63
2022-09-13T17:46:23.533Z,22.73
2022-09-13T17:48:53.572Z,22.51
2022-09-13T17:51:26.727Z,22.54
2022-09-13T17:54:00.356Z,21.94
2022-09-13T17:56:34.469Z,22.04
2022-09-13T17:59:10.036Z,22.13
2022-09-13T18:01:40.215Z,22.14
2022-09-13T18:04:09.039Z,21.80
2022-09-13T18:06:38.297Z,22.06
2022-09-13T18:09:06.626Z,22.24
2022-09-13T18:11:34.630Z,21.85
2022-09-13T18:14:03.140Z,21.77
2022-09-13T18:16:31.628Z,21.86
2022-09-13T18:19:00.968Z,21.82
2022-09-13T18:21:29.920Z,21.67
2022-09-13T18:24:00.147Z,21.80
2022-09-13T18:26:31.809Z,21.48
2022-09-13T18:29:04.290Z,21.29
2022-09-13T18:31:35.418Z,21.37
2022-09-13T18:34:06.245Z,21.09
2022-09-13T18:36:35.356Z,20.72
2022-09-13T18:39:04.688Z,20.79
2022-09-13T18:41:35.571Z,20.73
2022-09-13T18:44:05.354Z,20.65
2022-09-13T18:46:35.372Z,21.35
2022-09-13T18:49:04.992Z,21.27
2022-09-13T18:51:38.200Z,21.46
2022-09-13T18:54:08.036Z,20.67
2022-09-13T18:56:38.487Z,20.35
2022-09-13T18:59:06.961Z,20.24
2022-09-13T19:01:37.544Z,20.29
2022-09-13T19:04:11.919Z,20.46
2022-09-13T19:06:42.137Z,20.21
2022-09-13T19:09:11.161Z,20.41
2022-09-13T19:11:47.361Z,20.16
2022-09-13T19:14:18.630Z,20.40
2022-09-13T19:16:47.271Z,20.24
2022-09-13T19:19:15.407Z,20.05
2022-09-13T19:21:43.733Z,19.81
2022-09-13T19:24:18.174Z,19.67
2022-09-13T19:26:49.309Z,19.60
2022-09-13T19:29:18.773Z,19.73
2022-09-13T19:31:48.963Z,19.50
2022-09-13T19:34:18.894Z,19.50
2022-09-13T19:36:49.256Z,19.08
2022-09-13T19:39:17.882Z,18.99
2022-09-13T19:41:46.251Z,19.37
2022-09-13T19:44:14.832Z,19.41
2022-09-13T19:46:43.630Z,19.37
2022-09-13T19:49:16.576Z,19.05
2022-09-13T19:51:50.074Z,18.98
2022-09-13T19:54:20.993Z,18.88
2022-09-13T19:56:50.352Z,18.77
2022-09-13T19:59:20.180Z,18.18
2022-09-13T20:01:50.730Z,18.27
2022-09-13T20:04:21.434Z,18.11
2022-09-13T20:06:50.805Z,18.06
2022-09-13T20:09:20.561Z,18.10
2022-09-13T20:11:52.698Z,17.96
2022-09-13T20:14:22.680Z,18.00
2022-09-13T20:16:50.504Z,18.02
2022-09-13T20:22:09.134Z,17.63
2022-09-13T20:24:37.731Z,17.42
2022-09-13T20:27:06.008Z,17.24
2022-09-13T20:29:34.537Z,17.35
2022-09-13T20:32:02.742Z,17.41
2022-09-13T20:34:30.477Z,17.53
2022-09-13T20:36:58.457Z,17.64
2022-09-13T20:39:26.509Z,17.47
2022-09-13T20:41:54.973Z,17.60
2022-09-13T20:44:23.207Z,18.51
2022-09-13T20:46:51.153Z,18.63
2022-09-13T20:49:19.955Z,18.58
2022-09-13T20:51:50.179Z,18.63
2022-09-13T20:54:18.069Z,18.76
2022-09-13T20:56:46.391Z,18.89
2022-09-13T20:59:14.528Z,19.14
2022-09-13T21:01:42.043Z,19.20
2022-09-13T21:04:09.804Z,19.27
2022-09-13T21:06:39.958Z,19.05
2022-09-13T21:09:07.589Z,19.33
2022-09-13T21:11:36.521Z,19.57
2022-09-13T21:14:06.348Z,18.95
2022-09-13T21:16:36.577Z,18.20
2022-09-13T21:19:04.403Z,18.48
2022-09-13T21:21:34.702Z,18.54
2022-09-13T21:24:04.459Z,18.58
2022-09-13T21:26:32.539Z,18.81
2022-09-13T21:29:00.762Z,18.37
2022-09-13T21:31:30.449Z,18.49
2022-09-13T21:34:14.574Z,18.58
2022-09-13T21:36:42.018Z,18.51
2022-09-13T21:39:09.760Z,18.89
2022-09-13T21:41:37.126Z,18.67
2022-09-13T21:44:05.273Z,18.14
2022-09-13T21:46:34.907Z,18.25
2022-09-13T21:49:04.990Z,18.18
2022-09-13T21:51:41.352Z,18.62
2022-09-13T21:54:11.550Z,18.72
2022-09-13T21:56:42.182Z,19.21
2022-09-13T21:59:14.710Z,19.51
2022-09-13T22:01:46.728Z,19.79
2022-09-13T22:04:17.380Z,19.77
2022-09-13T22:06:46.159Z,19.37
2022-09-13T22:09:14.510Z,19.12
2022-09-13T22:11:43.948Z,19.38
2022-09-13T22:14:13.342Z,19.47
2022-09-13T22:16:42.177Z,19.35
2022-09-13T22:19:12.255Z,18.85
2022-09-13T22:21:42.397Z,19.30
2022-09-13T22:24:14.246Z,18.53
2022-09-13T22:26:41.969Z,18.57
2022-09-13T22:29:09.931Z,17.79
2022-09-13T22:31:40.032Z,18.13
2022-09-13T22:34:08.478Z,17.56
2022-09-13T22:36:36.252Z,17.18
2022-09-13T22:39:03.955Z,17.20
2022-09-13T22:41:33.309Z,17.28
2022-09-13T22:44:02.272Z,17.24
2022-09-13T22:46:39.254Z,17.03
2022-09-13T22:49:07.601Z,17.05
2022-09-13T22:51:35.018Z,16.88
2022-09-13T22:54:06.873Z,16.51
2022-09-13T22:56:36.166Z,16.61
2022-09-13T22:59:07.770Z,17.30
2022-09-13T23:01:35.916Z,17.69
2022-09-13T23:04:04.352Z,18.02
2022-09-13T23:06:31.825Z,18.11
2022-09-13T23:09:01.484Z,18.14
2022-09-13T23:11:32.239Z,18.34
2022-09-13T23:14:02.317Z,18.89
2022-09-13T23:16:35.080Z,18.62
2022-09-13T23:19:02.846Z,18.80
2022-09-13T23:21:35.686Z,18.75
2022-09-13T23:24:04.804Z,18.64
2022-09-13T23:26:33.517Z,18.25
2022-09-13T23:29:03.036Z,17.89
2022-09-13T23:31:33.669Z,17.38
2022-09-13T23:34:03.473Z,17.42
2022-09-13T23:36:34.634Z,17.19
2022-09-13T23:39:03.596Z,17.04
2022-09-13T23:41:32.777Z,16.59
2022-09-13T23:44:01.141Z,16.80
2022-09-13T23:46:29.167Z,16.35
2022-09-13T23:48:56.940Z,16.48
2022-09-13T23:51:26.006Z,16.40
2022-09-13T23:53:57.862Z,15.89
2022-09-13T23:56:26.551Z,15.72
2022-09-13T23:58:56.575Z,15.65
